createdAt,value
2023-04-26T00:09:14.686Z,80.94
2023-04-26T00:19:18.391Z,80.64
2023-04-26T00:29:22.264Z,80.36
2023-04-26T00:39:25.844Z,79.34
2023-04-26T00:49:29.186Z,78.27
2023-04-26T00:59:32.545Z,77.88
2023-04-26T01:09:35.896Z,77.60
2023-04-26T01:19:50.638Z,76.79
2023-04-26T01:29:54.228Z,76.34
2023-04-26T01:39:57.560Z,75.22
2023-04-26T01:50:00.600Z,75.09
2023-04-26T02:00:05.060Z,74.94
2023-04-26T02:10:16.355Z,75.30
2023-04-26T02:20:21.564Z,75.53
2023-04-26T02:30:24.666Z,75.91
2023-04-26T02:40:27.917Z,77.55
2023-04-26T02:50:31.724Z,77.91
2023-04-26T03:00:35.056Z,76.63
2023-04-26T03:10:38.613Z,75.13
2023-04-26T03:20:42.375Z,74.59
2023-04-26T03:30:46.082Z,74.60
2023-04-26T03:40:49.923Z,73.62
2023-04-26T03:50:53.897Z,73.81
2023-04-26T04:00:58.683Z,74.81
2023-04-26T04:11:02.424Z,75.66
2023-04-26T04:21:06.908Z,75.68
2023-04-26T04:31:10.575Z,74.68
2023-04-26T04:41:14.822Z,74.23
2023-04-26T04:51:18.223Z,74.34
2023-04-26T05:01:22.128Z,73.74
2023-04-26T05:11:29.878Z,73.63
2023-04-26T05:21:33.605Z,71.62
2023-04-26T05:31:37.079Z,70.43
2023-04-26T05:41:58.754Z,69.88
2023-04-26T05:52:03.781Z,69.28
2023-04-26T06:02:07.516Z,67.42
2023-04-26T06:12:11.353Z,67.05
2023-04-26T06:22:17.246Z,65.85
2023-04-26T06:32:20.501Z,64.90
2023-04-26T06:42:24.298Z,64.28
2023-04-26T06:52:50.613Z,62.46
2023-04-26T07:02:54.040Z,58.38
2023-04-26T07:12:57.713Z,58.97
2023-04-26T07:23:00.898Z,58.04
2023-04-26T07:33:04.136Z,57.13
2023-04-26T07:43:07.547Z,56.71
2023-04-26T07:53:10.850Z,56.51
2023-04-26T08:03:18.346Z,54.46
2023-04-26T08:13:21.898Z,55.94
2023-04-26T08:23:25.168Z,55.24
2023-04-26T08:34:56.946Z,55.36
2023-04-26T08:55:28.740Z,54.76
2023-04-26T09:05:34.545Z,54.18
2023-04-26T09:15:38.225Z,55.68
2023-04-26T09:25:41.564Z,55.00
2023-04-26T09:35:45.054Z,53.51
2023-04-26T09:45:50.771Z,53.59
2023-04-26T09:55:55.713Z,50.89
2023-04-26T10:05:58.816Z,52.71
2023-04-26T10:16:03.173Z,55.05
2023-04-26T10:26:06.576Z,55.41
2023-04-26T10:36:12.438Z,54.34
2023-04-26T10:46:43.446Z,55.26
2023-04-26T10:56:46.614Z,56.36
2023-04-26T11:06:54.474Z,55.54
2023-04-26T11:16:57.788Z,55.71
2023-04-26T11:27:00.848Z,53.84
2023-04-26T11:37:05.146Z,53.95
2023-04-26T11:47:10.235Z,53.97
2023-04-26T11:57:17.174Z,53.91
2023-04-26T12:07:21.516Z,51.41
2023-04-26T12:17:28.638Z,51.33
2023-04-26T12:27:32.397Z,50.53
2023-04-26T12:37:35.671Z,50.67
2023-04-26T12:47:38.948Z,50.03
2023-04-26T12:57:44.367Z,48.85
2023-04-26T13:07:48.090Z,48.81
2023-04-26T13:17:51.301Z,47.75
2023-04-26T13:27:55.569Z,45.08
2023-04-26T13:37:58.804Z,45.74
2023-04-26T13:48:02.025Z,46.17
2023-04-26T13:58:05.215Z,46.90
2023-04-26T14:08:08.408Z,46.58
2023-04-26T14:18:11.764Z,46.80
2023-04-26T14:28:16.684Z,46.24
2023-04-26T14:38:20.174Z,46.66
2023-04-26T14:48:23.562Z,45.63
2023-04-26T14:58:27.452Z,46.67
2023-04-26T15:08:30.563Z,46.10
2023-04-26T15:18:34.031Z,45.12
2023-04-26T15:28:37.429Z,45.71
2023-04-26T15:38:45.135Z,44.64
2023-04-26T15:48:48.264Z,44.59
2023-04-26T15:58:51.761Z,43.14
2023-04-26T16:09:04.688Z,43.33
2023-04-26T16:30:07.638Z,45.94
2023-04-26T16:40:16.076Z,46.98
2023-04-26T16:50:26.962Z,49.40
2023-04-26T17:00:30.661Z,49.65
2023-04-26T17:10:40.419Z,49.09
2023-04-26T17:20:46.635Z,50.44
2023-04-26T17:30:52.055Z,51.88
2023-04-26T17:41:04.428Z,54.45
2023-04-26T17:51:18.181Z,55.44
2023-04-26T18:01:23.729Z,56.46
2023-04-26T18:11:27.199Z,58.39
2023-04-26T18:21:31.977Z,59.38
2023-04-26T18:31:35.377Z,60.24
2023-04-26T18:41:39.740Z,62.04
2023-04-26T18:51:44.131Z,63.38
2023-04-26T19:02:18.648Z,64.06
2023-04-26T19:12:50.317Z,65.40
2023-04-26T19:22:57.899Z,65.83
2023-04-26T19:33:01.012Z,66.33
2023-04-26T19:43:04.493Z,67.16
2023-04-26T19:53:09.971Z,67.54
2023-04-26T20:03:13.300Z,68.04
2023-04-26T20:13:16.494Z,68.07
2023-04-26T20:23:19.707Z,68.55
2023-04-26T20:33:22.908Z,68.66
2023-04-26T20:43:26.096Z,69.39
2023-04-26T20:53:29.444Z,69.53
2023-04-26T21:03:32.750Z,69.17
2023-04-26T21:13:36.037Z,69.66
2023-04-26T21:23:39.133Z,69.92
2023-04-26T21:33:42.256Z,70.36
2023-04-26T21:43:45.928Z,70.96
2023-04-26T21:53:49.113Z,71.54
2023-04-26T22:03:52.282Z,71.79
2023-04-26T22:13:55.606Z,71.84
2023-04-26T22:23:58.780Z,72.41
2023-04-26T22:34:02.316Z,72.87
2023-04-26T22:44:05.704Z,73.58
2023-04-26T22:54:08.915Z,73.71
2023-04-26T23:04:12.057Z,74.39
2023-04-26T23:14:16.155Z,74.52
2023-04-26T23:24:19.516Z,74.83
2023-04-26T23:34:22.586Z,74.71
2023-04-26T23:44:25.783Z,75.13
2023-04-26T23:54:29.187Z,75.23
